sensor_id;sensor_type;location;lat;lon;timestamp;P1;durP1;ratioP1;P2;durP2;ratioP2
30697;SDS011;17448;47.200;10.902;2023-05-15T11:12:07;2.28;;;1.80;;
30697;SDS011;17448;47.200;10.902;2023-05-15T11:17:01;2.08;;;1.60;;
30697;SDS011;17448;47.200;10.902;2023-05-15T11:22:01;3.50;;;1.77;;
30697;SDS011;17448;47.200;10.902;2023-05-15T11:24:29;2.22;;;1.60;;
30697;SDS011;17448;47.200;10.902;2023-05-15T11:26:58;1.60;;;1.50;;
30697;SDS011;17448;47.200;10.902;2023-05-15T11:29:25;1.60;;;1.48;;
30697;SDS011;17448;47.200;10.902;2023-05-15T11:31:51;2.95;;;1.80;;
30697;SDS011;17448;47.200;10.902;2023-05-15T11:34:28;2.45;;;1.55;;
30697;SDS011;17448;47.200;10.902;2023-05-15T11:36:54;3.90;;;1.70;;
30697;SDS011;17448;47.200;10.902;2023-05-15T11:39:24;3.40;;;1.70;;
30697;SDS011;17448;47.200;10.902;2023-05-15T11:41:50;2.10;;;1.90;;
30697;SDS011;17448;47.200;10.902;2023-05-15T11:44:21;2.92;;;2.00;;
30697;SDS011;17448;47.200;10.902;2023-05-15T11:46:48;2.28;;;1.85;;
30697;SDS011;17448;47.200;10.902;2023-05-15T11:49:18;3.13;;;1.95;;
30697;SDS011;17448;47.200;10.902;2023-05-15T11:51:45;2.50;;;1.73;;
30697;SDS011;17448;47.200;10.902;2023-05-15T11:54:12;2.63;;;1.45;;
30697;SDS011;17448;47.200;10.902;2023-05-15T11:56:42;3.42;;;1.80;;
30697;SDS011;17448;47.200;10.902;2023-05-15T11:59:11;1.85;;;1.63;;
30697;SDS011;17448;47.200;10.902;2023-05-15T12:01:42;2.58;;;1.60;;
30697;SDS011;17448;47.200;10.902;2023-05-15T12:04:12;1.85;;;1.65;;
30697;SDS011;17448;47.200;10.902;2023-05-15T12:06:39;2.75;;;2.13;;
30697;SDS011;17448;47.200;10.902;2023-05-15T12:09:05;2.92;;;1.98;;
30697;SDS011;17448;47.200;10.902;2023-05-15T12:11:32;2.17;;;1.75;;
30697;SDS011;17448;47.200;10.902;2023-05-15T12:13:58;3.13;;;1.75;;
30697;SDS011;17448;47.200;10.902;2023-05-15T12:16:25;4.43;;;2.17;;
30697;SDS011;17448;47.200;10.902;2023-05-15T12:18:51;1.65;;;1.50;;
30697;SDS011;17448;47.200;10.902;2023-05-15T12:21:17;3.95;;;1.95;;
30697;SDS011;17448;47.200;10.902;2023-05-15T12:23:50;1.95;;;1.70;;
30697;SDS011;17448;47.200;10.902;2023-05-15T12:26:17;1.35;;;1.05;;
30697;SDS011;17448;47.200;10.902;2023-05-15T12:28:45;1.75;;;1.65;;
30697;SDS011;17448;47.200;10.902;2023-05-15T12:31:12;2.15;;;1.70;;
30697;SDS011;17448;47.200;10.902;2023-05-15T12:33:39;1.90;;;1.70;;
30697;SDS011;17448;47.200;10.902;2023-05-15T12:36:06;2.90;;;1.63;;
30697;SDS011;17448;47.200;10.902;2023-05-15T12:38:32;1.63;;;1.52;;
30697;SDS011;17448;47.200;10.902;2023-05-15T12:40:59;2.05;;;1.50;;
30697;SDS011;17448;47.200;10.902;2023-05-15T12:43:25;4.28;;;1.77;;
30697;SDS011;17448;47.200;10.902;2023-05-15T12:45:55;1.70;;;1.60;;
30697;SDS011;17448;47.200;10.902;2023-05-15T12:48:30;2.13;;;1.70;;
30697;SDS011;17448;47.200;10.902;2023-05-15T12:51:03;2.13;;;1.42;;
30697;SDS011;17448;47.200;10.902;2023-05-15T12:53:30;3.50;;;1.65;;
30697;SDS011;17448;47.200;10.902;2023-05-15T12:55:58;2.88;;;1.70;;
30697;SDS011;17448;47.200;10.902;2023-05-15T12:58:25;1.75;;;1.50;;
30697;SDS011;17448;47.200;10.902;2023-05-15T13:00:51;1.05;;;1.00;;
30697;SDS011;17448;47.200;10.902;2023-05-15T13:03:19;1.98;;;1.60;;
30697;SDS011;17448;47.200;10.902;2023-05-15T13:05:46;1.63;;;1.50;;
30697;SDS011;17448;47.200;10.902;2023-05-15T13:08:15;1.98;;;1.77;;
30697;SDS011;17448;47.200;10.902;2023-05-15T13:10:42;1.83;;;1.50;;
30697;SDS011;17448;47.200;10.902;2023-05-15T13:13:08;1.65;;;1.55;;
30697;SDS011;17448;47.200;10.902;2023-05-15T13:15:39;1.85;;;1.70;;
30697;SDS011;17448;47.200;10.902;2023-05-15T13:18:09;1.90;;;1.70;;
30697;SDS011;17448;47.200;10.902;2023-05-15T13:20:39;1.95;;;1.60;;
30697;SDS011;17448;47.200;10.902;2023-05-15T13:23:06;2.42;;;1.85;;
30697;SDS011;17448;47.200;10.902;2023-05-15T13:25:32;2.33;;;1.90;;
30697;SDS011;17448;47.200;10.902;2023-05-15T13:28:00;2.67;;;1.90;;
30697;SDS011;17448;47.200;10.902;2023-05-15T13:30:27;3.42;;;1.80;;
30697;SDS011;17448;47.200;10.902;2023-05-15T13:32:54;1.55;;;1.33;;
30697;SDS011;17448;47.200;10.902;2023-05-15T13:35:20;2.40;;;1.65;;
30697;SDS011;17448;47.200;10.902;2023-05-15T13:37:46;0.90;;;0.90;;
30697;SDS011;17448;47.200;10.902;2023-05-15T13:40:12;2.17;;;1.50;;
30697;SDS011;17448;47.200;10.902;2023-05-15T13:42:39;2.13;;;1.13;;
30697;SDS011;17448;47.200;10.902;2023-05-15T13:45:10;1.25;;;1.08;;
30697;SDS011;17448;47.200;10.902;2023-05-15T13:47:36;1.25;;;1.15;;
30697;SDS011;17448;47.200;10.902;2023-05-15T13:50:04;1.10;;;1.00;;
30697;SDS011;17448;47.200;10.902;2023-05-15T13:52:31;2.58;;;1.40;;
30697;SDS011;17448;47.200;10.902;2023-05-15T13:54:58;1.77;;;1.35;;
30697;SDS011;17448;47.200;10.902;2023-05-15T13:57:24;0.80;;;0.80;;
30697;SDS011;17448;47.200;10.902;2023-05-15T13:59:50;0.80;;;0.80;;
30697;SDS011;17448;47.200;10.902;2023-05-15T14:02:17;0.60;;;0.60;;
30697;SDS011;17448;47.200;10.902;2023-05-15T14:04:45;0.80;;;0.80;;
30697;SDS011;17448;47.200;10.902;2023-05-15T14:07:11;1.02;;;0.93;;
30697;SDS011;17448;47.200;10.902;2023-05-15T14:09:37;0.85;;;0.80;;
30697;SDS011;17448;47.200;10.902;2023-05-15T14:12:03;1.58;;;0.95;;
30697;SDS011;17448;47.200;10.902;2023-05-15T14:14:30;0.70;;;0.70;;
30697;SDS011;17448;47.200;10.902;2023-05-15T14:16:56;0.90;;;0.80;;
30697;SDS011;17448;47.200;10.902;2023-05-15T14:19:22;0.88;;;0.73;;
30697;SDS011;17448;47.200;10.902;2023-05-15T14:21:49;2.90;;;1.13;;
30697;SDS011;17448;47.200;10.902;2023-05-15T14:24:15;1.85;;;0.75;;
30697;SDS011;17448;47.200;10.902;2023-05-15T14:26:41;4.57;;;1.33;;
30697;SDS011;17448;47.200;10.902;2023-05-15T14:29:09;0.70;;;0.70;;
30697;SDS011;17448;47.200;10.902;2023-05-15T14:31:36;4.63;;;1.20;;
30697;SDS011;17448;47.200;10.902;2023-05-15T14:34:02;1.52;;;0.80;;
30697;SDS011;17448;47.200;10.902;2023-05-15T14:36:30;1.30;;;1.20;;
30697;SDS011;17448;47.200;10.902;2023-05-15T14:38:56;4.18;;;1.30;;
30697;SDS011;17448;47.200;10.902;2023-05-15T14:41:22;2.65;;;1.52;;
30697;SDS011;17448;47.200;10.902;2023-05-15T14:43:48;1.33;;;1.20;;
30697;SDS011;17448;47.200;10.902;2023-05-15T14:46:15;1.02;;;0.85;;
30697;SDS011;17448;47.200;10.902;2023-05-15T14:48:41;2.80;;;1.15;;
30697;SDS011;17448;47.200;10.902;2023-05-15T14:51:08;1.27;;;0.98;;
30697;SDS011;17448;47.200;10.902;2023-05-15T14:53:34;1.70;;;1.17;;
30697;SDS011;17448;47.200;10.902;2023-05-15T14:56:00;1.17;;;1.08;;
30697;SDS011;17448;47.200;10.902;2023-05-15T14:58:27;2.22;;;1.00;;
30697;SDS011;17448;47.200;10.902;2023-05-15T15:00:53;0.90;;;0.80;;
30697;SDS011;17448;47.200;10.902;2023-05-15T15:03:21;1.02;;;0.90;;
30697;SDS011;17448;47.200;10.902;2023-05-15T15:05:48;2.47;;;1.48;;
30697;SDS011;17448;47.200;10.902;2023-05-15T15:08:18;1.20;;;0.98;;
30697;SDS011;17448;47.200;10.902;2023-05-15T15:10:44;2.33;;;1.13;;
30697;SDS011;17448;47.200;10.902;2023-05-15T15:13:11;1.88;;;1.23;;
30697;SDS011;17448;47.200;10.902;2023-05-15T15:15:38;1.63;;;1.25;;
30697;SDS011;17448;47.200;10.902;2023-05-15T15:18:05;2.42;;;2.22;;
30697;SDS011;17448;47.200;10.902;2023-05-15T15:20:31;1.30;;;1.02;;
30697;SDS011;17448;47.200;10.902;2023-05-15T15:22:57;1.17;;;1.00;;
30697;SDS011;17448;47.200;10.902;2023-05-15T15:25:24;0.80;;;0.80;;
30697;SDS011;17448;47.200;10.902;2023-05-15T15:27:50;1.20;;;0.82;;
30697;SDS011;17448;47.200;10.902;2023-05-15T15:30:16;1.17;;;1.02;;
30697;SDS011;17448;47.200;10.902;2023-05-15T15:32:43;0.93;;;0.93;;
30697;SDS011;17448;47.200;10.902;2023-05-15T15:35:09;1.63;;;1.02;;
30697;SDS011;17448;47.200;10.902;2023-05-15T15:37:36;1.20;;;1.10;;
30697;SDS011;17448;47.200;10.902;2023-05-15T15:40:04;1.55;;;1.10;;
30697;SDS011;17448;47.200;10.902;2023-05-15T15:42:34;1.42;;;1.17;;
30697;SDS011;17448;47.200;10.902;2023-05-15T15:45:00;1.50;;;1.23;;
30697;SDS011;17448;47.200;10.902;2023-05-15T15:47:27;2.58;;;1.35;;
30697;SDS011;17448;47.200;10.902;2023-05-15T15:49:54;2.60;;;1.35;;
30697;SDS011;17448;47.200;10.902;2023-05-15T15:52:21;1.55;;;1.17;;
30697;SDS011;17448;47.200;10.902;2023-05-15T15:54:47;1.30;;;1.20;;
30697;SDS011;17448;47.200;10.902;2023-05-15T15:57:14;2.05;;;1.40;;
30697;SDS011;17448;47.200;10.902;2023-05-15T15:59:40;2.28;;;1.30;;
30697;SDS011;17448;47.200;10.902;2023-05-15T16:02:06;1.30;;;1.17;;
30697;SDS011;17448;47.200;10.902;2023-05-15T16:04:33;1.30;;;1.20;;
30697;SDS011;17448;47.200;10.902;2023-05-15T16:06:59;1.58;;;1.48;;
30697;SDS011;17448;47.200;10.902;2023-05-15T16:09:25;3.75;;;1.38;;
30697;SDS011;17448;47.200;10.902;2023-05-15T16:11:51;2.22;;;1.13;;
30697;SDS011;17448;47.200;10.902;2023-05-15T16:14:18;1.30;;;1.20;;
30697;SDS011;17448;47.200;10.902;2023-05-15T16:16:45;1.90;;;1.58;;
30697;SDS011;17448;47.200;10.902;2023-05-15T16:19:14;1.45;;;1.35;;
30697;SDS011;17448;47.200;10.902;2023-05-15T16:21:40;1.30;;;1.20;;
30697;SDS011;17448;47.200;10.902;2023-05-15T16:24:07;2.25;;;1.23;;
30697;SDS011;17448;47.200;10.902;2023-05-15T16:26:35;1.27;;;1.17;;
30697;SDS011;17448;47.200;10.902;2023-05-15T16:29:01;1.40;;;1.30;;
30697;SDS011;17448;47.200;10.902;2023-05-15T16:31:27;1.52;;;1.42;;
30697;SDS011;17448;47.200;10.902;2023-05-15T16:33:53;1.52;;;1.27;;
30697;SDS011;17448;47.200;10.902;2023-05-15T16:36:19;1.75;;;1.30;;
30697;SDS011;17448;47.200;10.902;2023-05-15T16:38:46;1.38;;;1.27;;
30697;SDS011;17448;47.200;10.902;2023-05-15T16:41:12;2.08;;;1.40;;
30697;SDS011;17448;47.200;10.902;2023-05-15T16:43:38;2.97;;;1.30;;
30697;SDS011;17448;47.200;10.902;2023-05-15T16:46:06;1.88;;;1.52;;
30697;SDS011;17448;47.200;10.902;2023-05-15T16:48:32;3.97;;;1.50;;
30697;SDS011;17448;47.200;10.902;2023-05-15T16:50:58;1.63;;;1.52;;
30697;SDS011;17448;47.200;10.902;2023-05-15T16:53:24;1.88;;;1.35;;
30697;SDS011;17448;47.200;10.902;2023-05-15T16:55:51;2.22;;;1.40;;
30697;SDS011;17448;47.200;10.902;2023-05-15T16:58:17;2.05;;;1.40;;
30697;SDS011;17448;47.200;10.902;2023-05-15T17:00:44;2.92;;;1.95;;
30697;SDS011;17448;47.200;10.902;2023-05-15T17:03:10;1.95;;;1.60;;
30697;SDS011;17448;47.200;10.902;2023-05-15T17:05:37;3.13;;;2.20;;
30697;SDS011;17448;47.200;10.902;2023-05-15T17:08:04;7.53;;;2.42;;
30697;SDS011;17448;47.200;10.902;2023-05-15T17:10:30;3.38;;;2.20;;
30697;SDS011;17448;47.200;10.902;2023-05-15T17:12:56;2.92;;;1.77;;
30697;SDS011;17448;47.200;10.902;2023-05-15T17:15:22;2.10;;;1.90;;
30697;SDS011;17448;47.200;10.902;2023-05-15T17:17:49;2.15;;;1.48;;
30697;SDS011;17448;47.200;10.902;2023-05-15T17:20:15;3.50;;;1.75;;
30697;SDS011;17448;47.200;10.902;2023-05-15T17:22:41;4.50;;;1.90;;
30697;SDS011;17448;47.200;10.902;2023-05-15T17:25:08;3.13;;;2.20;;
30697;SDS011;17448;47.200;10.902;2023-05-15T17:27:35;5.15;;;2.17;;
30697;SDS011;17448;47.200;10.902;2023-05-15T17:30:08;2.17;;;1.55;;
30697;SDS011;17448;47.200;10.902;2023-05-15T17:35:15;3.60;;;2.20;;
30697;SDS011;17448;47.200;10.902;2023-05-15T17:37:54;2.83;;;1.90;;
30697;SDS011;17448;47.200;10.902;2023-05-15T17:40:20;2.58;;;2.10;;
30697;SDS011;17448;47.200;10.902;2023-05-15T17:42:46;2.35;;;2.00;;
30697;SDS011;17448;47.200;10.902;2023-05-15T17:45:12;2.40;;;2.20;;
30697;SDS011;17448;47.200;10.902;2023-05-15T17:47:39;3.45;;;2.47;;
30697;SDS011;17448;47.200;10.902;2023-05-15T17:50:05;3.67;;;2.50;;
30697;SDS011;17448;47.200;10.902;2023-05-15T17:52:33;3.65;;;2.70;;
30697;SDS011;17448;47.200;10.902;2023-05-15T17:55:01;3.28;;;2.28;;
30697;SDS011;17448;47.200;10.902;2023-05-15T17:57:27;4.05;;;2.53;;
30697;SDS011;17448;47.200;10.902;2023-05-15T17:59:53;4.95;;;1.92;;
30697;SDS011;17448;47.200;10.902;2023-05-15T18:02:19;2.15;;;1.58;;
30697;SDS011;17448;47.200;10.902;2023-05-15T18:04:45;2.60;;;2.20;;
30697;SDS011;17448;47.200;10.902;2023-05-15T18:07:12;1.75;;;1.63;;
30697;SDS011;17448;47.200;10.902;2023-05-15T18:09:38;6.90;;;2.17;;
30697;SDS011;17448;47.200;10.902;2023-05-15T18:12:04;2.70;;;1.42;;
30697;SDS011;17448;47.200;10.902;2023-05-15T18:14:31;3.17;;;1.77;;
30697;SDS011;17448;47.200;10.902;2023-05-15T18:16:57;1.85;;;1.70;;
30697;SDS011;17448;47.200;10.902;2023-05-15T18:19:23;5.32;;;2.05;;
30697;SDS011;17448;47.200;10.902;2023-05-15T18:21:50;3.38;;;1.60;;
30697;SDS011;17448;47.200;10.902;2023-05-15T18:24:16;2.85;;;2.05;;
30697;SDS011;17448;47.200;10.902;2023-05-15T18:26:42;2.42;;;1.55;;
30697;SDS011;17448;47.200;10.902;2023-05-15T18:29:09;1.80;;;1.55;;
30697;SDS011;17448;47.200;10.902;2023-05-15T18:31:35;3.08;;;1.48;;
30697;SDS011;17448;47.200;10.902;2023-05-15T18:34:02;2.10;;;1.75;;
30697;SDS011;17448;47.200;10.902;2023-05-15T18:36:29;2.10;;;1.80;;
30697;SDS011;17448;47.200;10.902;2023-05-15T18:38:55;2.22;;;1.95;;
30697;SDS011;17448;47.200;10.902;2023-05-15T18:41:21;3.08;;;2.08;;
30697;SDS011;17448;47.200;10.902;2023-05-15T18:43:47;3.08;;;2.08;;
30697;SDS011;17448;47.200;10.902;2023-05-15T18:46:14;3.95;;;2.72;;
30697;SDS011;17448;47.200;10.902;2023-05-15T18:48:40;2.75;;;1.77;;
30697;SDS011;17448;47.200;10.902;2023-05-15T18:51:06;2.10;;;1.88;;
30697;SDS011;17448;47.200;10.902;2023-05-15T18:53:33;3.10;;;1.75;;
30697;SDS011;17448;47.200;10.902;2023-05-15T18:55:59;8.77;;;4.00;;
30697;SDS011;17448;47.200;10.902;2023-05-15T18:58:25;6.18;;;3.03;;
30697;SDS011;17448;47.200;10.902;2023-05-15T19:00:52;4.25;;;2.38;;
30697;SDS011;17448;47.200;10.902;2023-05-15T19:03:19;5.15;;;2.78;;
30697;SDS011;17448;47.200;10.902;2023-05-15T19:05:45;3.30;;;1.98;;
30697;SDS011;17448;47.200;10.902;2023-05-15T19:08:12;2.35;;;1.63;;
30697;SDS011;17448;47.200;10.902;2023-05-15T19:10:38;3.03;;;2.25;;
30697;SDS011;17448;47.200;10.902;2023-05-15T19:13:05;2.58;;;2.15;;
30697;SDS011;17448;47.200;10.902;2023-05-15T19:15:34;4.10;;;2.30;;
30697;SDS011;17448;47.200;10.902;2023-05-15T19:18:00;3.70;;;2.45;;
30697;SDS011;17448;47.200;10.902;2023-05-15T19:20:27;5.15;;;2.65;;
30697;SDS011;17448;47.200;10.902;2023-05-15T19:22:53;5.95;;;2.40;;
30697;SDS011;17448;47.200;10.902;2023-05-15T19:25:19;3.75;;;2.08;;
30697;SDS011;17448;47.200;10.902;2023-05-15T19:27:45;6.07;;;2.40;;
30697;SDS011;17448;47.200;10.902;2023-05-15T19:30:12;2.65;;;2.22;;
30697;SDS011;17448;47.200;10.902;2023-05-15T19:32:38;2.90;;;2.17;;
30697;SDS011;17448;47.200;10.902;2023-05-15T19:35:05;2.20;;;1.92;;
30697;SDS011;17448;47.200;10.902;2023-05-15T19:37:31;3.85;;;2.30;;
30697;SDS011;17448;47.200;10.902;2023-05-15T19:39:57;5.65;;;2.10;;
30697;SDS011;17448;47.200;10.902;2023-05-15T19:42:23;2.85;;;2.00;;
30697;SDS011;17448;47.200;10.902;2023-05-15T19:44:50;2.10;;;1.90;;
30697;SDS011;17448;47.200;10.902;2023-05-15T19:47:16;4.28;;;2.42;;
30697;SDS011;17448;47.200;10.902;2023-05-15T19:49:42;3.83;;;2.20;;
30697;SDS011;17448;47.200;10.902;2023-05-15T19:52:09;3.33;;;2.25;;
30697;SDS011;17448;47.200;10.902;2023-05-15T19:54:35;7.18;;;2.50;;
30697;SDS011;17448;47.200;10.902;2023-05-15T19:57:02;2.78;;;2.38;;
30697;SDS011;17448;47.200;10.902;2023-05-15T19:59:28;5.75;;;2.30;;
30697;SDS011;17448;47.200;10.902;2023-05-15T20:01:54;5.20;;;2.70;;
30697;SDS011;17448;47.200;10.902;2023-05-15T20:04:20;3.17;;;2.33;;
30697;SDS011;17448;47.200;10.902;2023-05-15T20:06:46;2.35;;;2.08;;
30697;SDS011;17448;47.200;10.902;2023-05-15T20:09:12;3.65;;;2.17;;
30697;SDS011;17448;47.200;10.902;2023-05-15T20:11:39;3.00;;;2.20;;
30697;SDS011;17448;47.200;10.902;2023-05-15T20:14:05;5.32;;;2.80;;
30697;SDS011;17448;47.200;10.902;2023-05-15T20:16:31;7.55;;;2.78;;
30697;SDS011;17448;47.200;10.902;2023-05-15T20:18:57;4.88;;;2.65;;
30697;SDS011;17448;47.200;10.902;2023-05-15T20:21:23;7.28;;;2.10;;
30697;SDS011;17448;47.200;10.902;2023-05-15T20:23:50;5.60;;;2.60;;
30697;SDS011;17448;47.200;10.902;2023-05-15T20:26:17;3.67;;;2.63;;
30697;SDS011;17448;47.200;10.902;2023-05-15T20:28:44;3.08;;;2.40;;
30697;SDS011;17448;47.200;10.902;2023-05-15T20:31:10;2.53;;;1.90;;
30697;SDS011;17448;47.200;10.902;2023-05-15T20:33:36;3.95;;;2.63;;
30697;SDS011;17448;47.200;10.902;2023-05-15T20:36:02;5.57;;;2.33;;
30697;SDS011;17448;47.200;10.902;2023-05-15T20:38:29;5.22;;;3.08;;
30697;SDS011;17448;47.200;10.902;2023-05-15T20:40:58;6.53;;;2.58;;
30697;SDS011;17448;47.200;10.902;2023-05-15T20:43:24;4.50;;;2.38;;
30697;SDS011;17448;47.200;10.902;2023-05-15T20:45:50;4.60;;;2.55;;
30697;SDS011;17448;47.200;10.902;2023-05-15T20:48:17;5.10;;;2.30;;
30697;SDS011;17448;47.200;10.902;2023-05-15T20:50:43;3.13;;;2.20;;
30697;SDS011;17448;47.200;10.902;2023-05-15T20:53:09;3.88;;;2.50;;
30697;SDS011;17448;47.200;10.902;2023-05-15T20:55:35;5.13;;;2.22;;
30697;SDS011;17448;47.200;10.902;2023-05-15T20:58:02;3.67;;;2.28;;
30697;SDS011;17448;47.200;10.902;2023-05-15T21:00:28;4.75;;;2.80;;
30697;SDS011;17448;47.200;10.902;2023-05-15T21:02:54;6.20;;;2.20;;
30697;SDS011;17448;47.200;10.902;2023-05-15T21:05:20;5.38;;;2.38;;
30697;SDS011;17448;47.200;10.902;2023-05-15T21:07:46;4.85;;;2.63;;
30697;SDS011;17448;47.200;10.902;2023-05-15T21:10:13;4.10;;;2.42;;
30697;SDS011;17448;47.200;10.902;2023-05-15T21:12:39;3.72;;;2.50;;
30697;SDS011;17448;47.200;10.902;2023-05-15T21:15:06;4.72;;;2.03;;
30697;SDS011;17448;47.200;10.902;2023-05-15T21:17:32;5.53;;;2.38;;
30697;SDS011;17448;47.200;10.902;2023-05-15T21:19:59;3.70;;;2.25;;
30697;SDS011;17448;47.200;10.902;2023-05-15T21:22:26;3.80;;;2.33;;
30697;SDS011;17448;47.200;10.902;2023-05-15T21:24:52;3.58;;;2.35;;
30697;SDS011;17448;47.200;10.902;2023-05-15T21:27:18;5.80;;;2.83;;
30697;SDS011;17448;47.200;10.902;2023-05-15T21:29:44;9.65;;;2.28;;
30697;SDS011;17448;47.200;10.902;2023-05-15T21:32:10;5.32;;;2.45;;
30697;SDS011;17448;47.200;10.902;2023-05-15T21:34:37;3.53;;;2.40;;
30697;SDS011;17448;47.200;10.902;2023-05-15T21:37:03;4.53;;;2.35;;
30697;SDS011;17448;47.200;10.902;2023-05-15T21:39:30;7.70;;;2.33;;
30697;SDS011;17448;47.200;10.902;2023-05-15T21:41:56;4.63;;;2.40;;
30697;SDS011;17448;47.200;10.902;2023-05-15T21:44:22;6.38;;;2.30;;
30697;SDS011;17448;47.200;10.902;2023-05-15T21:46:48;5.82;;;2.75;;
30697;SDS011;17448;47.200;10.902;2023-05-15T21:49:15;4.35;;;2.22;;
30697;SDS011;17448;47.200;10.902;2023-05-15T21:51:41;5.80;;;2.38;;
30697;SDS011;17448;47.200;10.902;2023-05-15T21:54:07;2.15;;;1.75;;
30697;SDS011;17448;47.200;10.902;2023-05-15T21:56:34;4.85;;;2.65;;
30697;SDS011;17448;47.200;10.902;2023-05-15T21:59:00;6.78;;;2.70;;
30697;SDS011;17448;47.200;10.902;2023-05-15T22:01:26;4.60;;;2.45;;
30697;SDS011;17448;47.200;10.902;2023-05-15T22:03:53;5.10;;;2.53;;
30697;SDS011;17448;47.200;10.902;2023-05-15T22:06:19;4.38;;;2.65;;
30697;SDS011;17448;47.200;10.902;2023-05-15T22:08:45;3.58;;;2.50;;
30697;SDS011;17448;47.200;10.902;2023-05-15T22:11:13;5.15;;;2.30;;
30697;SDS011;17448;47.200;10.902;2023-05-15T22:13:40;4.60;;;2.60;;
30697;SDS011;17448;47.200;10.902;2023-05-15T22:16:06;4.78;;;3.05;;
30697;SDS011;17448;47.200;10.902;2023-05-15T22:18:33;9.35;;;2.80;;
30697;SDS011;17448;47.200;10.902;2023-05-15T22:20:59;3.88;;;2.92;;
30697;SDS011;17448;47.200;10.902;2023-05-15T22:23:27;5.30;;;2.80;;
30697;SDS011;17448;47.200;10.902;2023-05-15T22:25:53;5.20;;;2.83;;
30697;SDS011;17448;47.200;10.902;2023-05-15T22:28:19;3.72;;;2.65;;
30697;SDS011;17448;47.200;10.902;2023-05-15T22:30:46;3.85;;;2.85;;
30697;SDS011;17448;47.200;10.902;2023-05-15T22:33:12;7.20;;;2.45;;
30697;SDS011;17448;47.200;10.902;2023-05-15T22:35:38;6.90;;;2.83;;
30697;SDS011;17448;47.200;10.902;2023-05-15T22:38:04;4.80;;;2.90;;
30697;SDS011;17448;47.200;10.902;2023-05-15T22:40:31;4.13;;;2.70;;
30697;SDS011;17448;47.200;10.902;2023-05-15T22:42:57;5.38;;;2.75;;
30697;SDS011;17448;47.200;10.902;2023-05-15T22:45:23;3.47;;;2.60;;
30697;SDS011;17448;47.200;10.902;2023-05-15T22:47:50;5.75;;;3.08;;
30697;SDS011;17448;47.200;10.902;2023-05-15T22:50:16;7.47;;;3.10;;
30697;SDS011;17448;47.200;10.902;2023-05-15T22:52:42;5.95;;;2.60;;
30697;SDS011;17448;47.200;10.902;2023-05-15T22:55:09;3.20;;;2.67;;
30697;SDS011;17448;47.200;10.902;2023-05-15T22:57:36;3.90;;;2.88;;
30697;SDS011;17448;47.200;10.902;2023-05-15T23:00:03;4.10;;;2.78;;
30697;SDS011;17448;47.200;10.902;2023-05-15T23:02:31;6.18;;;3.00;;
30697;SDS011;17448;47.200;10.902;2023-05-15T23:04:57;5.95;;;3.10;;
30697;SDS011;17448;47.200;10.902;2023-05-15T23:07:23;5.90;;;3.03;;
30697;SDS011;17448;47.200;10.902;2023-05-15T23:09:50;4.75;;;3.05;;
30697;SDS011;17448;47.200;10.902;2023-05-15T23:12:16;4.75;;;2.88;;
30697;SDS011;17448;47.200;10.902;2023-05-15T23:14:43;3.83;;;2.88;;
30697;SDS011;17448;47.200;10.902;2023-05-15T23:17:09;5.03;;;2.95;;
30697;SDS011;17448;47.200;10.902;2023-05-15T23:19:35;5.15;;;3.13;;
30697;SDS011;17448;47.200;10.902;2023-05-15T23:22:02;4.13;;;2.88;;
30697;SDS011;17448;47.200;10.902;2023-05-15T23:24:28;4.68;;;2.88;;
30697;SDS011;17448;47.200;10.902;2023-05-15T23:26:54;5.18;;;2.67;;
30697;SDS011;17448;47.200;10.902;2023-05-15T23:29:21;4.07;;;3.22;;
30697;SDS011;17448;47.200;10.902;2023-05-15T23:31:47;4.25;;;3.03;;
30697;SDS011;17448;47.200;10.902;2023-05-15T23:34:13;7.50;;;3.55;;
30697;SDS011;17448;47.200;10.902;2023-05-15T23:36:40;5.43;;;3.78;;
30697;SDS011;17448;47.200;10.902;2023-05-15T23:39:06;3.80;;;2.95;;
30697;SDS011;17448;47.200;10.902;2023-05-15T23:41:33;6.30;;;3.33;;
30697;SDS011;17448;47.200;10.902;2023-05-15T23:44:00;7.40;;;3.15;;
30697;SDS011;17448;47.200;10.902;2023-05-15T23:46:27;3.72;;;3.00;;
30697;SDS011;17448;47.200;10.902;2023-05-15T23:48:53;6.60;;;3.38;;
30697;SDS011;17448;47.200;10.902;2023-05-15T23:51:19;6.25;;;2.97;;
30697;SDS011;17448;47.200;10.902;2023-05-15T23:53:47;4.32;;;3.00;;
30697;SDS011;17448;47.200;10.902;2023-05-15T23:56:13;5.72;;;3.30;;
30697;SDS011;17448;47.200;10.902;2023-05-15T23:58:40;4.57;;;2.83;;
